Allentown, Illinois
Current Conditions -  °F | °C
As of 2:54 AM on Sunday 26 Oct 2014 (Local Time) from KPIA Reporting Station
Clear Clear  
Wind Chill:   Ceiling: Unl
Heat Index:   Visibility: 10mi
Dew Point:   Wind: 3mph
Humidity: 68%   Direction: 220°SW
Pressure: 30.04"   Gusts: NA
Location:  40.4817°N, 89.4923°W
Report Text: KPIA 260754Z 22003KT 10SM CLR 08/02 A3004 RMK AO2 SLP171 T00780022
Loading
Personal Weather Stations






























Interactive Weather Map
Tropical Storm Tracking
New forecast layout! Learn more

10-Day Weather Forecast

Advertisements
Track Severe Weather on mobile